Terminal Aerodrome Forecast
Issued by NWS

Home | Current Version | Previous Version | Graphics & Text | Print | Product List | Glossary On
Versions: 1 2 3 4 5 6 7 8 9 10 11 12 13 14 15 16 17 18 19 20 21 22 23 24 25 26 27 28 29 30 31 32 33 34 35 36 37
000
FTUS43 KLOT 041135
TAFDPA
TAF
KDPA 041135Z 0412/0512 23006KT 6SM BR VCSH FEW020 OVC100
     FM041400 34008KT 6SM BR SCT012 BKN100
     FM041600 36009KT 6SM BR BKN012 BKN120
     FM041900 04010KT P6SM BKN035
     FM050000 07009KT P6SM VCSH BKN040
     FM050400 07010KT 4SM -SHRA VCTS OVC020CB PROB30 0506/0510 3SM
      TSRA OVC010CB=

USA.gov is the U.S. government's official web portal to all federal, state and local government web resources and services.